createdAt,value
2023-03-12T00:01:24.273Z,18.67
2023-03-12T00:03:51.319Z,15.57
2023-03-12T00:06:19.795Z,18.17
2023-03-12T00:08:46.973Z,18.20
2023-03-12T00:11:19.492Z,20.00
2023-03-12T00:13:52.905Z,17.70
2023-03-12T00:16:20.379Z,21.75
2023-03-12T00:18:52.247Z,17.88
2023-03-12T00:21:21.040Z,18.83
2023-03-12T00:24:37.884Z,19.65
2023-03-12T00:27:04.583Z,19.38
2023-03-12T00:29:31.333Z,17.58
2023-03-12T00:31:57.943Z,23.38
2023-03-12T00:34:24.569Z,18.52
2023-03-12T00:39:32.848Z,17.98
2023-03-12T00:41:59.481Z,24.48
2023-03-12T00:44:26.276Z,18.35
2023-03-12T00:46:53.213Z,17.92
2023-03-12T00:49:19.833Z,19.23
2023-03-12T00:51:46.685Z,18.60
2023-03-12T00:54:13.398Z,17.77
2023-03-12T00:56:39.996Z,20.27
2023-03-12T00:59:09.787Z,18.35
2023-03-12T01:01:36.416Z,17.88
2023-03-12T01:04:03.505Z,17.85
2023-03-12T01:06:30.456Z,17.65
2023-03-12T01:08:57.545Z,18.95
2023-03-12T01:11:24.635Z,18.90
2023-03-12T01:13:51.325Z,21.75
2023-03-12T01:16:18.193Z,19.42
2023-03-12T01:18:45.005Z,19.50
2023-03-12T01:21:11.705Z,19.92
2023-03-12T01:23:38.606Z,19.60
2023-03-12T01:26:05.241Z,26.10
2023-03-12T01:28:32.012Z,20.38
2023-03-12T01:30:58.668Z,25.45
2023-03-12T01:33:25.359Z,22.20
2023-03-12T01:35:52.089Z,21.08
2023-03-12T01:38:20.652Z,21.75
2023-03-12T01:40:47.237Z,20.80
2023-03-12T01:43:31.796Z,20.35
2023-03-12T01:46:26.700Z,21.50
2023-03-12T01:49:09.431Z,20.65
2023-03-12T01:51:50.297Z,20.80
2023-03-12T01:54:25.100Z,22.40
2023-03-12T01:56:54.051Z,20.85
2023-03-12T01:59:26.150Z,23.40
2023-03-12T02:01:53.178Z,27.33
2023-03-12T02:04:23.729Z,17.05
2023-03-12T02:07:05.022Z,19.63
2023-03-12T02:09:36.757Z,19.40
2023-03-12T02:12:04.521Z,21.70
2023-03-12T02:14:32.115Z,18.92
2023-03-12T02:16:59.137Z,17.02
2023-03-12T02:19:48.638Z,20.23
2023-03-12T02:22:15.914Z,17.40
2023-03-12T02:24:54.522Z,25.13
2023-03-12T02:27:22.535Z,19.13
2023-03-12T02:29:50.154Z,21.02
2023-03-12T02:32:27.813Z,22.75
2023-03-12T02:34:56.830Z,20.67
2023-03-12T02:37:23.597Z,23.80
2023-03-12T02:39:57.297Z,18.52
2023-03-12T02:42:24.801Z,26.63
2023-03-12T02:44:51.615Z,22.45
2023-03-12T02:47:18.626Z,22.88
2023-03-12T02:49:46.435Z,20.90
2023-03-12T02:52:13.806Z,21.08
2023-03-12T02:54:42.054Z,20.35
2023-03-12T02:57:08.653Z,21.98
2023-03-12T02:59:35.340Z,28.00
2023-03-12T03:02:04.355Z,24.42
2023-03-12T03:04:31.920Z,24.55
2023-03-12T03:06:58.661Z,20.48
2023-03-12T03:09:25.758Z,23.15
2023-03-12T03:11:53.062Z,21.83
2023-03-12T03:14:20.554Z,28.77
2023-03-12T03:16:50.463Z,24.95
2023-03-12T03:19:17.586Z,19.83
2023-03-12T03:21:44.218Z,38.83
2023-03-12T03:24:10.962Z,21.75
2023-03-12T03:26:37.743Z,24.05
2023-03-12T03:29:04.898Z,21.30
2023-03-12T03:31:31.797Z,20.67
2023-03-12T03:33:58.663Z,20.77
2023-03-12T03:36:25.633Z,19.65
2023-03-12T03:39:01.512Z,19.58
2023-03-12T03:41:29.930Z,20.25
2023-03-12T03:43:58.473Z,23.25
2023-03-12T03:46:25.886Z,20.33
2023-03-12T03:48:58.253Z,21.50
2023-03-12T03:51:25.051Z,20.27
2023-03-12T03:53:56.986Z,22.27
2023-03-12T03:56:23.936Z,20.45
2023-03-12T03:58:50.825Z,19.73
2023-03-12T04:01:20.018Z,38.00
2023-03-12T04:03:47.941Z,19.52
2023-03-12T04:06:14.734Z,20.73
2023-03-12T04:08:44.069Z,20.80
2023-03-12T04:11:17.719Z,19.98
2023-03-12T04:13:45.803Z,20.35
2023-03-12T04:16:15.881Z,20.55
2023-03-12T04:18:43.715Z,21.20
2023-03-12T04:21:13.442Z,20.25
2023-03-12T04:23:41.166Z,20.50
2023-03-12T04:26:09.618Z,19.10
2023-03-12T04:28:37.385Z,19.15
2023-03-12T04:31:07.686Z,18.10
2023-03-12T04:33:39.944Z,20.67
2023-03-12T04:36:08.653Z,20.63
2023-03-12T04:38:37.238Z,22.67
2023-03-12T04:41:11.801Z,20.08
2023-03-12T04:43:43.633Z,21.05
2023-03-12T04:46:11.410Z,20.20
2023-03-12T04:48:44.740Z,19.63
2023-03-12T04:51:12.681Z,20.17
2023-03-12T04:53:40.386Z,18.98
2023-03-12T04:56:09.296Z,19.05
2023-03-12T04:58:36.852Z,20.30
2023-03-12T05:01:05.433Z,21.30
2023-03-12T05:03:32.750Z,20.08
2023-03-12T05:05:59.949Z,20.15
2023-03-12T05:08:26.589Z,19.58
2023-03-12T05:10:53.787Z,19.90
2023-03-12T05:13:22.596Z,20.70
2023-03-12T05:15:52.512Z,19.17
2023-03-12T05:18:21.282Z,21.08
2023-03-12T05:20:57.437Z,21.23
2023-03-12T05:23:24.446Z,20.48
2023-03-12T05:25:51.085Z,20.38
2023-03-12T05:28:17.842Z,20.20
2023-03-12T05:30:44.510Z,22.25
2023-03-12T05:33:11.411Z,20.67
2023-03-12T05:35:38.089Z,21.65
2023-03-12T05:38:04.848Z,20.42
2023-03-12T05:40:31.504Z,22.17
2023-03-12T05:42:59.472Z,21.75
2023-03-12T05:45:27.335Z,23.33
2023-03-12T05:47:56.112Z,22.48
2023-03-12T05:50:22.784Z,21.90
2023-03-12T05:52:49.505Z,21.60
2023-03-12T05:55:16.575Z,22.77
2023-03-12T05:57:43.335Z,20.67
2023-03-12T06:00:13.800Z,21.17
2023-03-12T06:02:42.489Z,25.08
2023-03-12T06:05:11.750Z,23.67
2023-03-12T06:07:38.820Z,26.23
2023-03-12T06:10:06.119Z,26.90
2023-03-12T06:12:32.785Z,25.48
2023-03-12T06:15:00.611Z,26.98
2023-03-12T06:17:29.554Z,25.85
2023-03-12T06:19:56.187Z,25.60
2023-03-12T06:22:22.853Z,25.33
2023-03-12T06:24:49.865Z,24.50
2023-03-12T06:27:17.619Z,25.35
2023-03-12T06:29:47.030Z,25.52
2023-03-12T06:32:14.490Z,24.48
2023-03-12T06:34:41.356Z,26.00
2023-03-12T06:37:08.004Z,25.30
2023-03-12T06:39:34.633Z,25.13
2023-03-12T06:42:01.370Z,24.25
2023-03-12T06:44:28.108Z,25.70
2023-03-12T06:46:55.271Z,25.38
2023-03-12T06:49:22.221Z,24.45
2023-03-12T06:51:48.996Z,25.15
2023-03-12T06:54:15.843Z,22.90
2023-03-12T06:56:42.566Z,25.08
2023-03-12T06:59:09.213Z,25.27
2023-03-12T07:01:35.826Z,24.52
2023-03-12T07:04:02.725Z,24.67
2023-03-12T07:06:29.855Z,26.73
2023-03-12T07:08:56.447Z,25.42
2023-03-12T07:11:23.372Z,26.10
2023-03-12T07:13:50.074Z,25.65
2023-03-12T07:16:16.758Z,24.80
2023-03-12T07:18:43.477Z,25.83
2023-03-12T07:21:10.136Z,30.63
2023-03-12T07:23:36.719Z,27.45
2023-03-12T07:26:05.445Z,27.83
2023-03-12T07:28:32.153Z,27.00
2023-03-12T07:31:04.152Z,26.23
2023-03-12T07:33:30.888Z,28.60
2023-03-12T07:35:57.623Z,27.27
2023-03-12T07:38:24.711Z,27.83
2023-03-12T07:40:53.737Z,26.80
2023-03-12T07:43:21.833Z,28.65
2023-03-12T07:45:50.940Z,26.42
2023-03-12T07:48:19.705Z,26.90
2023-03-12T07:50:46.826Z,27.52
2023-03-12T07:53:13.484Z,27.33
2023-03-12T07:55:40.628Z,28.55
2023-03-12T07:58:07.439Z,29.80
2023-03-12T08:00:34.202Z,29.00
2023-03-12T08:03:01.083Z,27.85
2023-03-12T08:05:28.039Z,27.92
2023-03-12T08:07:55.396Z,38.63
2023-03-12T08:10:22.598Z,35.13
2023-03-12T08:12:49.794Z,34.58
2023-03-12T08:15:16.563Z,35.60
2023-03-12T08:17:43.273Z,34.42
2023-03-12T08:20:10.845Z,37.17
2023-03-12T08:22:38.896Z,36.20
2023-03-12T08:25:06.024Z,33.90
2023-03-12T08:27:33.788Z,33.33
2023-03-12T08:30:00.620Z,36.80
2023-03-12T08:32:27.351Z,35.88
2023-03-12T08:34:54.055Z,33.25
2023-03-12T08:37:20.645Z,31.02
2023-03-12T08:39:47.248Z,32.75
2023-03-12T08:42:13.842Z,31.23
2023-03-12T08:44:40.523Z,34.85
2023-03-12T08:47:07.120Z,37.22
2023-03-12T08:49:33.776Z,35.70
2023-03-12T08:52:00.583Z,30.60
2023-03-12T08:54:27.214Z,32.85
2023-03-12T08:56:53.943Z,32.60
2023-03-12T08:59:22.137Z,34.10
2023-03-12T09:01:49.053Z,35.90
2023-03-12T09:04:16.289Z,35.63
2023-03-12T09:06:43.221Z,32.88
2023-03-12T09:09:09.984Z,32.40
2023-03-12T09:11:39.577Z,35.42
2023-03-12T09:16:52.938Z,37.42
2023-03-12T09:19:20.460Z,37.25
2023-03-12T09:21:47.084Z,30.60
2023-03-12T09:24:13.677Z,29.35
2023-03-12T09:26:40.352Z,25.40
2023-03-12T09:29:07.063Z,25.75
2023-03-12T09:31:34.565Z,20.90
2023-03-12T09:34:01.174Z,20.30
2023-03-12T09:36:28.232Z,20.60
2023-03-12T09:38:57.648Z,89.38
2023-03-12T09:41:28.081Z,24.83
2023-03-12T09:44:13.399Z,20.02
2023-03-12T09:49:33.991Z,28.67
2023-03-12T09:52:07.773Z,24.08
2023-03-12T09:54:47.424Z,30.75
2023-03-12T09:57:24.619Z,27.30
2023-03-12T09:59:52.274Z,26.88
2023-03-12T10:02:29.253Z,18.40
2023-03-12T10:05:05.745Z,23.70
2023-03-12T10:07:47.739Z,18.95
2023-03-12T10:10:22.358Z,23.65
2023-03-12T10:12:51.959Z,24.00
2023-03-12T10:15:21.456Z,28.17
2023-03-12T10:18:10.085Z,23.15
2023-03-12T10:21:01.114Z,31.63
2023-03-12T10:23:34.423Z,36.63
2023-03-12T10:26:18.287Z,30.05
2023-03-12T10:28:48.402Z,23.58
2023-03-12T10:31:30.921Z,34.83
2023-03-12T10:33:59.990Z,20.67
2023-03-12T10:36:40.147Z,29.95
2023-03-12T10:39:19.629Z,31.60
2023-03-12T10:41:47.749Z,24.83
2023-03-12T10:44:21.195Z,31.27
2023-03-12T10:47:09.616Z,28.05
2023-03-12T10:49:37.310Z,25.35
2023-03-12T10:52:05.434Z,24.25
2023-03-12T10:54:35.220Z,30.05
2023-03-12T10:57:02.290Z,27.17
2023-03-12T10:59:37.987Z,32.63
2023-03-12T11:02:29.391Z,30.30
2023-03-12T11:04:56.485Z,37.45
2023-03-12T11:07:35.165Z,29.92
2023-03-12T11:10:17.229Z,34.25
2023-03-12T11:13:21.701Z,36.22
2023-03-12T11:15:48.836Z,39.90
2023-03-12T11:18:29.126Z,35.08
2023-03-12T11:21:09.434Z,43.22
2023-03-12T11:23:39.533Z,36.67
2023-03-12T11:26:20.322Z,29.30
2023-03-12T11:28:49.869Z,33.70
2023-03-12T11:31:24.106Z,38.13
2023-03-12T11:33:54.352Z,25.80
2023-03-12T11:36:43.201Z,37.42
2023-03-12T11:40:11.208Z,85.45
2023-03-12T11:42:41.166Z,39.50
2023-03-12T11:45:14.836Z,44.97
2023-03-12T11:47:57.189Z,45.20
2023-03-12T11:50:38.712Z,53.10
2023-03-12T11:53:49.444Z,49.60
2023-03-12T11:56:16.027Z,60.28
2023-03-12T11:58:54.136Z,49.03
2023-03-12T12:01:53.368Z,36.33
2023-03-12T12:04:57.412Z,48.10
2023-03-12T12:07:41.023Z,55.53
2023-03-12T12:10:37.927Z,46.38
2023-03-12T12:13:26.677Z,51.20
2023-03-12T12:16:31.147Z,54.88
2023-03-12T12:19:26.799Z,45.17
2023-03-12T12:22:06.266Z,80.72
2023-03-12T12:24:39.433Z,81.07
2023-03-12T12:27:31.662Z,103.85
2023-03-12T12:30:04.471Z,116.38
2023-03-12T12:32:37.189Z,97.20
2023-03-12T12:35:19.649Z,65.57
2023-03-12T12:38:15.056Z,55.22
2023-03-12T12:40:51.276Z,84.88
2023-03-12T12:43:41.241Z,82.05
2023-03-12T12:46:24.835Z,87.95
2023-03-12T12:48:53.481Z,66.28
2023-03-12T12:51:25.164Z,86.55
2023-03-12T12:54:10.323Z,61.22
2023-03-12T12:59:31.392Z,67.28
2023-03-12T13:01:59.958Z,64.45
2023-03-12T13:04:32.397Z,72.45
2023-03-12T13:07:20.117Z,60.05
2023-03-12T13:09:52.752Z,53.13
2023-03-12T13:12:25.190Z,51.63
2023-03-12T13:14:53.420Z,51.47
2023-03-12T13:17:36.527Z,44.38
2023-03-12T13:20:20.609Z,47.42
2023-03-12T13:22:58.543Z,50.78
2023-03-12T13:25:48.172Z,43.03
2023-03-12T13:28:35.870Z,38.95
2023-03-12T13:31:28.746Z,64.32
2023-03-12T13:34:19.347Z,56.58
2023-03-12T13:36:50.131Z,37.63
2023-03-12T13:39:16.673Z,39.40
2023-03-12T13:41:49.652Z,33.28
2023-03-12T13:44:38.969Z,36.90
2023-03-12T13:47:18.818Z,31.98
2023-03-12T13:50:10.439Z,32.08
2023-03-12T13:52:40.045Z,31.42
2023-03-12T13:55:26.362Z,32.28
2023-03-12T13:58:04.747Z,35.28
2023-03-12T14:00:41.544Z,31.98
2023-03-12T14:03:17.208Z,34.70
2023-03-12T14:06:13.490Z,41.10
2023-03-12T14:08:53.844Z,34.00
2023-03-12T14:11:51.614Z,34.63
2023-03-12T14:14:43.646Z,27.77
2023-03-12T14:17:24.185Z,23.77
2023-03-12T14:20:25.100Z,31.63
2023-03-12T14:23:05.647Z,28.83
2023-03-12T14:25:36.377Z,37.85
2023-03-12T14:28:10.724Z,31.60
2023-03-12T14:30:59.651Z,32.35
2023-03-12T14:33:31.734Z,31.48
2023-03-12T14:36:20.583Z,26.50
2023-03-12T14:38:49.239Z,26.50
2023-03-12T14:41:27.708Z,23.75
2023-03-12T14:43:54.577Z,21.75
2023-03-12T14:46:23.746Z,23.70
2023-03-12T14:48:52.534Z,23.77
2023-03-12T14:51:27.961Z,18.10
2023-03-12T14:53:56.219Z,20.23
2023-03-12T14:56:24.696Z,20.38
2023-03-12T14:58:52.046Z,22.73
2023-03-12T15:01:25.672Z,23.70
2023-03-12T15:04:04.536Z,27.70
2023-03-12T15:06:37.857Z,30.45
2023-03-12T15:09:06.973Z,26.17
2023-03-12T15:11:35.905Z,26.48
2023-03-12T15:14:07.105Z,29.88
2023-03-12T15:16:34.402Z,25.42
2023-03-12T15:19:03.556Z,26.92
2023-03-12T15:21:34.406Z,29.92
2023-03-12T15:24:01.298Z,31.00
2023-03-12T15:26:34.607Z,26.58
2023-03-12T15:29:03.198Z,23.83
2023-03-12T15:31:47.662Z,22.90
2023-03-12T15:34:35.042Z,22.67
2023-03-12T15:37:18.252Z,20.83
2023-03-12T15:39:48.605Z,27.80
2023-03-12T15:42:17.525Z,25.38
2023-03-12T15:44:51.935Z,34.60
2023-03-12T15:47:21.845Z,24.65
2023-03-12T15:49:53.324Z,29.13
2023-03-12T15:52:19.946Z,37.55
2023-03-12T15:55:00.937Z,45.00
2023-03-12T15:57:28.385Z,35.33
2023-03-12T16:00:17.479Z,35.70
2023-03-12T16:03:01.566Z,42.28
2023-03-12T16:05:38.843Z,50.00
2023-03-12T16:08:29.100Z,40.95
2023-03-12T16:10:56.320Z,47.58
2023-03-12T16:13:30.921Z,30.08
2023-03-12T16:15:59.043Z,40.08
2023-03-12T16:18:26.388Z,37.15
2023-03-12T16:20:53.603Z,37.58
2023-03-12T16:23:20.252Z,43.38
2023-03-12T16:25:52.844Z,40.65
2023-03-12T16:28:20.466Z,34.90
2023-03-12T16:30:47.339Z,44.53
2023-03-12T16:33:17.069Z,36.28
2023-03-12T16:35:44.705Z,41.38
2023-03-12T16:38:11.402Z,35.97
2023-03-12T16:40:42.379Z,31.65
2023-03-12T16:43:15.928Z,42.17
2023-03-12T16:45:44.901Z,31.25
2023-03-12T16:48:16.343Z,39.08
2023-03-12T16:50:50.531Z,37.50
2023-03-12T16:53:17.392Z,25.48
2023-03-12T16:56:00.701Z,33.53
2023-03-12T16:58:29.014Z,38.20
2023-03-12T17:00:56.829Z,32.42
2023-03-12T17:03:35.444Z,38.75
2023-03-12T17:06:03.067Z,33.67
2023-03-12T17:08:29.756Z,40.55
2023-03-12T17:10:57.670Z,33.22
2023-03-12T17:13:27.716Z,36.30
2023-03-12T17:15:55.695Z,34.72
2023-03-12T17:18:22.628Z,37.50
2023-03-12T17:20:51.470Z,35.58
2023-03-12T17:23:18.100Z,32.47
2023-03-12T17:25:45.102Z,43.70
2023-03-12T17:28:13.421Z,35.65
2023-03-12T17:30:40.041Z,31.65
2023-03-12T17:33:12.256Z,38.22
2023-03-12T17:35:39.827Z,38.08
2023-03-12T17:38:06.695Z,36.50
2023-03-12T17:40:33.791Z,45.65
2023-03-12T17:43:00.459Z,39.55
2023-03-12T17:45:27.473Z,32.08
2023-03-12T17:47:54.077Z,44.80
2023-03-12T17:50:20.778Z,32.90
2023-03-12T17:52:47.425Z,36.05
2023-03-12T17:55:14.188Z,37.03
2023-03-12T17:57:40.953Z,40.63
2023-03-12T18:00:12.501Z,36.33
2023-03-12T18:02:42.601Z,44.20
2023-03-12T18:05:10.813Z,33.72
2023-03-12T18:07:37.861Z,43.65
2023-03-12T18:10:07.468Z,42.50
2023-03-12T18:12:34.401Z,42.53
2023-03-12T18:15:01.113Z,35.35
2023-03-12T18:17:27.683Z,38.80
2023-03-12T18:19:54.260Z,38.60
2023-03-12T18:22:20.919Z,43.00
2023-03-12T18:24:47.794Z,41.85
2023-03-12T18:27:14.445Z,50.22
2023-03-12T18:29:41.240Z,35.38
2023-03-12T18:32:08.594Z,38.60
2023-03-12T18:34:35.774Z,45.08
2023-03-12T18:37:02.423Z,33.55
2023-03-12T18:39:29.200Z,33.97
2023-03-12T18:41:55.896Z,31.20
2023-03-12T18:44:22.735Z,39.92
2023-03-12T18:46:51.569Z,42.63
2023-03-12T18:49:18.309Z,32.25
2023-03-12T18:51:45.072Z,34.75
2023-03-12T18:54:12.540Z,31.00
2023-03-12T18:56:40.660Z,50.25
2023-03-12T18:59:09.596Z,41.70
2023-03-12T19:01:36.916Z,32.33
2023-03-12T19:04:03.768Z,28.95
2023-03-12T19:06:37.815Z,40.50
2023-03-12T19:09:14.845Z,36.70
2023-03-12T19:11:41.483Z,39.88
2023-03-12T19:14:08.094Z,32.28
2023-03-12T19:16:34.829Z,37.35
2023-03-12T19:19:01.524Z,38.05
2023-03-12T19:21:28.357Z,37.40
2023-03-12T19:23:54.995Z,39.38
2023-03-12T19:26:21.907Z,32.33
2023-03-12T19:28:48.530Z,35.35
2023-03-12T19:31:15.456Z,29.67
2023-03-12T19:33:42.960Z,44.17
2023-03-12T19:36:10.145Z,32.40
2023-03-12T19:38:36.882Z,35.90
2023-03-12T19:41:03.551Z,43.45
2023-03-12T19:43:30.171Z,34.22
2023-03-12T19:45:56.881Z,34.72
2023-03-12T19:48:25.187Z,31.02
2023-03-12T19:50:53.477Z,29.02
2023-03-12T19:53:20.140Z,30.20
2023-03-12T19:55:48.356Z,35.42
2023-03-12T19:58:15.752Z,41.97
2023-03-12T20:00:43.192Z,34.92
2023-03-12T20:03:10.154Z,32.42
2023-03-12T20:05:36.842Z,32.55
2023-03-12T20:08:03.618Z,28.73
2023-03-12T20:10:32.177Z,29.52
2023-03-12T20:12:58.895Z,46.85
2023-03-12T20:15:26.208Z,39.95
2023-03-12T20:17:54.629Z,44.33
2023-03-12T20:20:21.314Z,31.42
2023-03-12T20:22:47.961Z,38.78
2023-03-12T20:25:14.696Z,37.83
2023-03-12T20:27:41.354Z,29.48
2023-03-12T20:30:08.880Z,35.83
2023-03-12T20:32:35.756Z,28.20
2023-03-12T20:35:02.501Z,32.78
2023-03-12T20:37:29.151Z,35.75
2023-03-12T20:39:55.789Z,32.45
2023-03-12T20:42:22.473Z,30.25
2023-03-12T20:44:49.050Z,32.92
2023-03-12T20:47:15.644Z,29.15
2023-03-12T20:49:42.239Z,30.48
2023-03-12T20:52:08.851Z,33.53
2023-03-12T20:54:35.653Z,30.55
2023-03-12T20:57:02.300Z,40.03
2023-03-12T20:59:28.884Z,33.13
2023-03-12T21:01:55.533Z,38.78
2023-03-12T21:04:22.272Z,34.35
2023-03-12T21:06:51.473Z,33.65
2023-03-12T21:09:18.490Z,40.78
2023-03-12T21:11:45.071Z,34.53
2023-03-12T21:14:11.654Z,36.92
2023-03-12T21:16:38.297Z,44.90
2023-03-12T21:19:04.940Z,32.75
2023-03-12T21:21:32.069Z,38.72
2023-03-12T21:23:58.711Z,29.35
2023-03-12T21:26:25.516Z,38.05
2023-03-12T21:28:52.094Z,33.53
2023-03-12T21:31:18.919Z,35.85
2023-03-12T21:33:45.703Z,35.45
2023-03-12T21:36:14.216Z,34.28
2023-03-12T21:38:42.856Z,35.92
2023-03-12T21:41:15.389Z,40.05
2023-03-12T21:43:43.465Z,29.20
2023-03-12T21:46:15.742Z,37.58
2023-03-12T21:48:47.273Z,36.10
2023-03-12T21:51:16.731Z,24.00
2023-03-12T21:53:43.746Z,30.80
2023-03-12T21:56:11.136Z,34.88
2023-03-12T21:58:37.846Z,36.22
2023-03-12T22:01:14.271Z,36.58
2023-03-12T22:03:42.752Z,32.63
2023-03-12T22:06:10.396Z,29.92
2023-03-12T22:08:37.701Z,35.58
2023-03-12T22:11:05.838Z,30.17
2023-03-12T22:13:32.760Z,35.95
2023-03-12T22:16:03.241Z,32.05
2023-03-12T22:18:30.134Z,31.58
2023-03-12T22:21:03.223Z,25.45
2023-03-12T22:23:30.155Z,46.22
2023-03-12T22:26:00.792Z,35.63
2023-03-12T22:28:27.434Z,37.67
2023-03-12T22:30:59.301Z,24.55
2023-03-12T22:33:26.881Z,36.35
2023-03-12T22:35:53.793Z,36.63
2023-03-12T22:38:21.199Z,39.22
2023-03-12T22:40:47.947Z,38.90
2023-03-12T22:43:14.963Z,46.50
2023-03-12T22:45:42.197Z,38.47
2023-03-12T22:48:08.974Z,35.85
2023-03-12T22:50:35.619Z,35.85
2023-03-12T22:53:02.244Z,37.63
2023-03-12T22:55:28.892Z,41.00
2023-03-12T22:57:55.472Z,42.25
2023-03-12T23:00:22.847Z,24.58
2023-03-12T23:02:50.508Z,32.67
2023-03-12T23:05:17.239Z,30.27
2023-03-12T23:07:44.256Z,26.63
2023-03-12T23:10:11.302Z,35.78
2023-03-12T23:12:37.941Z,33.92
2023-03-12T23:15:05.457Z,37.75
2023-03-12T23:17:32.052Z,33.55
2023-03-12T23:19:59.005Z,24.17
2023-03-12T23:22:25.688Z,37.10
2023-03-12T23:24:52.494Z,35.33
2023-03-12T23:27:19.161Z,32.13
2023-03-12T23:29:45.832Z,30.40
2023-03-12T23:32:12.865Z,31.27
2023-03-12T23:34:39.604Z,32.67
2023-03-12T23:37:07.080Z,33.53
2023-03-12T23:39:39.387Z,43.30
2023-03-12T23:42:15.265Z,25.48
2023-03-12T23:44:41.980Z,32.90
2023-03-12T23:47:08.594Z,32.72
2023-03-12T23:49:35.225Z,33.42
2023-03-12T23:52:01.873Z,41.08
2023-03-12T23:54:28.461Z,28.02
2023-03-12T23:56:56.105Z,34.05
2023-03-12T23:59:23.035Z,25.75
